Time;durP1;ratioP1;P1;durP2;ratioP2;P2;SDS_P1;SDS_P2;PMS_P1;PMS_P2;Temp;Humidity;BMP_temperature;BMP_pressure;BME280_temperature;BME280_humidity;BME280_pressure;Samples;Min_cycle;Max_cycle;Signal;HPM_P1;HPM_P2
2023/09/21 00:01:03;;;;;;;3.50;0.90;;;18.50;99.90;;;;;;5098706;28;20111;-70
2023/09/21 00:03:29;;;;;;;2.72;1.23;;;18.50;99.90;;;;;;5096701;28;20048;-70
2023/09/21 00:05:56;;;;;;;2.05;0.90;;;18.50;99.90;;;;;;5081180;28;20044;-70
2023/09/21 00:08:23;;;;;;;4.13;0.95;;;18.50;99.90;;;;;;5069837;28;20557;-70
2023/09/21 00:10:50;;;;;;;3.22;1.10;;;18.50;99.90;;;;;;5074858;28;20032;-70
2023/09/21 00:13:17;;;;;;;2.17;0.80;;;18.50;99.90;;;;;;5065342;28;20054;-70
2023/09/21 00:15:43;;;;;;;3.22;1.90;;;18.40;99.90;;;;;;5088371;28;20169;-70
2023/09/21 00:18:09;;;;;;;4.75;0.98;;;18.50;99.90;;;;;;5088597;28;20043;-70
2023/09/21 00:20:43;;;;;;;6.88;1.30;;;18.40;99.90;;;;;;5100018;28;20039;-70
2023/09/21 00:23:09;;;;;;;3.75;1.10;;;18.40;99.90;;;;;;5088514;28;20067;-70
2023/09/21 00:25:36;;;;;;;2.65;1.00;;;18.40;99.90;;;;;;5076294;28;20048;-70
2023/09/21 00:28:11;;;;;;;2.78;1.42;;;18.40;99.90;;;;;;5087840;28;20447;-70
2023/09/21 00:30:37;;;;;;;2.72;1.15;;;18.40;99.90;;;;;;5097775;27;20091;-69
2023/09/21 00:33:07;;;;;;;3.42;0.98;;;18.40;99.90;;;;;;5086861;28;20298;-69
2023/09/21 00:35:39;;;;;;;3.33;1.10;;;18.30;99.90;;;;;;5085658;28;20067;-69
2023/09/21 00:38:10;;;;;;;2.60;1.00;;;18.40;99.90;;;;;;5068505;28;20032;-69
2023/09/21 00:40:38;;;;;;;4.88;1.25;;;18.30;99.90;;;;;;5096314;28;20044;-69
2023/09/21 00:43:06;;;;;;;3.08;1.45;;;18.30;99.90;;;;;;5101189;28;20085;-69
2023/09/21 00:45:38;;;;;;;5.88;0.95;;;18.30;99.90;;;;;;5072715;28;20048;-69
2023/09/21 00:48:12;;;;;;;3.63;1.15;;;18.30;99.90;;;;;;5069902;28;20048;-69
2023/09/21 00:50:41;;;;;;;3.78;1.23;;;18.30;99.90;;;;;;5071096;28;20667;-69
2023/09/21 00:53:13;;;;;;;2.38;1.20;;;18.30;99.90;;;;;;5069794;28;20025;-69
2023/09/21 00:55:39;;;;;;;3.53;1.20;;;18.30;99.90;;;;;;5088447;28;20036;-70
2023/09/21 00:58:07;;;;;;;3.60;2.15;;;18.30;99.90;;;;;;5074282;28;20028;-70
2023/09/21 01:00:34;;;;;;;3.42;1.30;;;18.30;99.90;;;;;;5097507;27;20043;-70
2023/09/21 01:03:07;;;;;;;4.10;1.00;;;18.40;99.90;;;;;;5097430;27;20132;-70
2023/09/21 01:05:40;;;;;;;2.42;1.33;;;18.40;99.90;;;;;;5098219;27;20067;-70
2023/09/21 01:08:10;;;;;;;6.07;1.33;;;18.40;99.90;;;;;;5068770;28;20043;-70
2023/09/21 01:10:41;;;;;;;16.70;2.60;;;18.40;99.90;;;;;;5067180;28;20115;-69
2023/09/21 01:13:09;;;;;;;2.97;1.15;;;18.40;99.90;;;;;;5068707;28;20040;-70
2023/09/21 01:15:35;;;;;;;3.00;1.52;;;18.40;99.90;;;;;;5069122;28;20036;-70
2023/09/21 01:18:06;;;;;;;5.57;1.70;;;18.40;99.90;;;;;;5097260;28;20039;-70
2023/09/21 01:20:32;;;;;;;3.88;1.30;;;18.50;99.90;;;;;;5096667;28;20555;-70
2023/09/21 01:23:14;;;;;;;3.40;1.30;;;18.50;99.90;;;;;;5096039;28;20051;-70
2023/09/21 01:25:42;;;;;;;3.72;1.58;;;18.50;99.90;;;;;;5082009;28;20381;-70
2023/09/21 01:28:09;;;;;;;2.38;1.23;;;18.50;99.90;;;;;;5099297;28;20428;-70
2023/09/21 01:30:41;;;;;;;5.47;1.60;;;18.60;99.90;;;;;;5087178;28;20043;-70
2023/09/21 01:33:11;;;;;;;5.28;1.50;;;18.60;99.90;;;;;;5071864;28;20035;-70
2023/09/21 01:35:40;;;;;;;4.38;1.90;;;18.70;99.90;;;;;;5085237;28;20032;-70
2023/09/21 01:38:06;;;;;;;4.22;1.67;;;18.70;99.90;;;;;;5067779;28;20048;-70
2023/09/21 01:40:34;;;;;;;2.55;1.42;;;18.70;99.90;;;;;;5066509;28;20051;-70
2023/09/21 01:43:08;;;;;;;3.28;1.25;;;18.80;99.90;;;;;;5067922;28;20120;-70
2023/09/21 01:45:40;;;;;;;5.60;1.48;;;18.70;99.90;;;;;;5086860;28;20036;-70
2023/09/21 01:48:09;;;;;;;2.63;1.30;;;18.70;99.90;;;;;;5096504;28;20184;-70
2023/09/21 01:50:43;;;;;;;3.92;1.00;;;18.70;99.90;;;;;;5097052;28;20037;-70
2023/09/21 01:53:10;;;;;;;2.22;1.27;;;18.80;99.90;;;;;;5084156;28;20452;-70
2023/09/21 01:55:39;;;;;;;2.05;1.20;;;18.80;99.90;;;;;;5067531;28;20067;-70
2023/09/21 01:58:06;;;;;;;3.30;1.45;;;18.80;99.90;;;;;;5084585;28;20036;-70
2023/09/21 02:00:39;;;;;;;2.83;1.10;;;18.80;99.90;;;;;;5054146;28;20097;-70
2023/09/21 02:03:06;;;;;;;4.10;1.25;;;18.70;99.90;;;;;;5096083;28;20040;-70
2023/09/21 02:05:33;;;;;;;4.30;1.25;;;18.80;99.90;;;;;;5068536;28;20131;-70
2023/09/21 02:07:59;;;;;;;2.70;0.85;;;18.80;99.90;;;;;;5095971;27;20051;-70
2023/09/21 02:10:25;;;;;;;7.97;2.00;;;18.80;99.90;;;;;;5098617;27;20036;-70
2023/09/21 02:13:00;;;;;;;2.08;1.13;;;18.80;99.90;;;;;;5055932;28;20036;-70
2023/09/21 02:15:27;;;;;;;3.80;1.27;;;18.80;99.90;;;;;;5072035;28;20040;-70
2023/09/21 02:17:56;;;;;;;2.90;1.55;;;18.80;99.90;;;;;;5085824;28;20132;-69
2023/09/21 02:20:29;;;;;;;3.85;1.02;;;18.90;99.90;;;;;;5066413;28;20063;-69
2023/09/21 02:22:57;;;;;;;3.25;1.20;;;18.80;99.90;;;;;;5085672;28;20052;-70
2023/09/21 02:25:24;;;;;;;2.05;1.05;;;18.80;99.90;;;;;;5066383;28;20052;-70
2023/09/21 02:27:50;;;;;;;1.90;1.30;;;18.80;99.90;;;;;;5074774;28;20067;-70
2023/09/21 02:30:21;;;;;;;3.50;1.10;;;18.80;99.90;;;;;;5092226;28;20047;-70
2023/09/21 02:32:50;;;;;;;2.90;1.25;;;18.90;99.90;;;;;;5068580;28;20043;-69
2023/09/21 02:35:22;;;;;;;2.65;1.20;;;18.80;99.90;;;;;;5069050;28;20079;-70
2023/09/21 02:37:50;;;;;;;2.75;1.35;;;18.80;99.90;;;;;;5066549;28;20040;-70
2023/09/21 02:40:19;;;;;;;8.07;1.10;;;18.80;99.90;;;;;;5066364;28;20043;-69
2023/09/21 02:42:46;;;;;;;2.10;1.13;;;18.80;99.90;;;;;;5094942;28;20040;-69
2023/09/21 02:45:12;;;;;;;4.25;1.30;;;18.70;99.90;;;;;;5069910;28;20075;-69
2023/09/21 02:47:44;;;;;;;4.82;1.73;;;18.70;99.90;;;;;;5084290;28;20521;-70
2023/09/21 02:50:14;;;;;;;2.35;1.30;;;18.70;99.90;;;;;;5067879;28;20071;-70
2023/09/21 02:53:04;;;;;;;3.63;1.02;;;18.70;99.90;;;;;;5084520;28;20378;-70
2023/09/21 02:55:29;;;;;;;2.28;1.10;;;18.70;99.90;;;;;;5065715;28;20082;-70
2023/09/21 02:57:59;;;;;;;6.10;2.53;;;18.70;99.90;;;;;;5085918;28;20059;-70
2023/09/21 03:00:26;;;;;;;2.42;1.00;;;18.70;99.90;;;;;;5069818;28;20047;-70
2023/09/21 03:02:54;;;;;;;1.92;1.13;;;18.70;99.90;;;;;;5068029;28;20035;-70
2023/09/21 03:05:21;;;;;;;6.28;1.77;;;18.60;99.90;;;;;;5068577;28;20048;-70
2023/09/21 03:07:47;;;;;;;2.33;1.10;;;18.60;99.90;;;;;;5067691;28;20130;-70
2023/09/21 03:10:13;;;;;;;5.82;1.42;;;18.60;99.90;;;;;;5095335;28;20234;-70
2023/09/21 03:12:39;;;;;;;2.50;1.00;;;18.50;99.90;;;;;;5087617;28;20783;-70
2023/09/21 03:15:18;;;;;;;3.60;1.00;;;18.50;99.90;;;;;;5085603;28;20032;-70
2023/09/21 03:17:45;;;;;;;3.63;1.63;;;18.50;99.90;;;;;;5068264;28;20040;-70
2023/09/21 03:20:13;;;;;;;3.90;1.02;;;18.50;99.90;;;;;;5068137;28;20152;-70
2023/09/21 03:22:41;;;;;;;2.90;1.10;;;18.50;99.90;;;;;;5086990;28;20036;-70
2023/09/21 03:25:16;;;;;;;5.53;1.10;;;18.50;99.90;;;;;;5085066;28;20036;-70
2023/09/21 03:27:45;;;;;;;2.00;1.45;;;18.50;99.90;;;;;;5067874;28;20072;-70
2023/09/21 03:30:11;;;;;;;2.55;0.90;;;18.40;99.90;;;;;;5083903;28;20383;-70
2023/09/21 03:32:41;;;;;;;3.10;1.30;;;18.40;99.90;;;;;;5097117;28;20094;-70
2023/09/21 03:35:10;;;;;;;4.45;1.25;;;18.40;99.90;;;;;;5064565;28;20114;-70
2023/09/21 03:37:36;;;;;;;3.83;1.05;;;18.40;99.90;;;;;;5084680;28;20097;-70
2023/09/21 03:40:03;;;;;;;4.10;1.17;;;18.40;99.90;;;;;;5050102;28;20043;-70
2023/09/21 03:42:29;;;;;;;6.32;1.33;;;18.40;99.90;;;;;;5094143;28;20080;-70
2023/09/21 03:44:55;;;;;;;4.22;1.00;;;18.30;99.90;;;;;;5067978;28;20127;-69
2023/09/21 03:47:20;;;;;;;3.45;1.40;;;18.30;99.90;;;;;;5081474;28;20566;-69
2023/09/21 03:49:46;;;;;;;3.97;1.40;;;18.30;99.90;;;;;;5064888;28;20032;-69
2023/09/21 03:52:15;;;;;;;4.07;1.20;;;18.30;99.90;;;;;;5082525;28;20093;-69
2023/09/21 03:54:42;;;;;;;4.22;1.10;;;18.30;99.90;;;;;;5085289;28;20474;-70
2023/09/21 03:57:14;;;;;;;1.85;1.10;;;18.30;99.90;;;;;;5095343;28;20039;-69
2023/09/21 03:59:40;;;;;;;2.05;1.00;;;18.20;99.90;;;;;;5060231;28;20071;-70
2023/09/21 04:02:07;;;;;;;3.70;1.63;;;18.20;99.90;;;;;;5064050;28;20063;-70
2023/09/21 04:04:33;;;;;;;2.95;1.05;;;18.20;99.90;;;;;;5093573;28;20092;-70
2023/09/21 04:06:58;;;;;;;2.42;1.25;;;18.20;99.90;;;;;;5065253;28;20048;-70
2023/09/21 04:09:24;;;;;;;3.17;0.93;;;18.20;99.90;;;;;;5081409;28;20482;-70
2023/09/21 04:11:50;;;;;;;6.70;1.00;;;18.20;99.90;;;;;;5072392;28;20074;-70
2023/09/21 04:14:15;;;;;;;2.70;0.93;;;18.30;99.90;;;;;;5067190;28;20044;-70
2023/09/21 04:16:41;;;;;;;3.08;1.20;;;18.20;99.90;;;;;;5080876;28;20041;-70
2023/09/21 04:19:10;;;;;;;5.18;2.45;;;18.20;99.90;;;;;;5060713;28;20557;-70
2023/09/21 04:21:36;;;;;;;2.65;1.00;;;18.20;99.90;;;;;;5065738;28;20043;-70
2023/09/21 04:24:02;;;;;;;2.25;1.42;;;18.20;99.90;;;;;;5085037;28;20508;-70
2023/09/21 04:26:28;;;;;;;3.03;1.00;;;18.20;99.90;;;;;;5081337;28;20390;-70
2023/09/21 04:28:55;;;;;;;2.28;1.20;;;18.10;99.90;;;;;;5077074;28;20416;-70
2023/09/21 04:31:21;;;;;;;5.28;1.13;;;18.10;99.90;;;;;;5086204;28;20084;-69
2023/09/21 04:33:46;;;;;;;5.57;1.42;;;18.20;99.90;;;;;;5084800;28;20028;-70
2023/09/21 04:36:12;;;;;;;2.53;1.05;;;18.10;99.90;;;;;;5062589;28;20044;-70
2023/09/21 04:38:38;;;;;;;5.05;0.80;;;18.10;99.90;;;;;;5085209;28;20039;-70
2023/09/21 04:41:04;;;;;;;9.43;1.80;;;18.10;99.90;;;;;;5065559;28;20032;-70
2023/09/21 04:43:32;;;;;;;3.78;1.05;;;18.10;99.90;;;;;;5085501;28;20047;-70
2023/09/21 04:45:59;;;;;;;2.35;1.10;;;18.10;99.90;;;;;;5064145;28;20074;-70
2023/09/21 04:48:25;;;;;;;3.25;1.20;;;18.10;99.90;;;;;;5065673;28;20048;-70
2023/09/21 04:50:51;;;;;;;2.53;1.45;;;18.10;99.90;;;;;;5084704;28;20036;-70
2023/09/21 04:53:16;;;;;;;4.38;1.00;;;18.10;99.90;;;;;;5067916;28;20040;-70
2023/09/21 04:55:42;;;;;;;2.42;1.08;;;18.10;99.90;;;;;;5084817;28;20032;-69
2023/09/21 04:58:07;;;;;;;2.55;1.23;;;18.10;99.90;;;;;;5083998;28;20063;-70
2023/09/21 05:00:34;;;;;;;4.20;1.30;;;18.10;99.90;;;;;;5065754;28;20048;-70
2023/09/21 05:02:59;;;;;;;2.47;1.40;;;18.10;99.90;;;;;;5067760;28;20126;-70
2023/09/21 05:05:26;;;;;;;2.70;1.15;;;18.10;99.90;;;;;;5084043;28;20143;-70
2023/09/21 05:07:53;;;;;;;2.17;1.23;;;18.10;99.90;;;;;;5088637;28;20036;-70
2023/09/21 05:10:18;;;;;;;4.72;1.38;;;18.10;99.90;;;;;;5063591;28;20051;-70
2023/09/21 05:12:46;;;;;;;3.50;1.23;;;18.10;99.90;;;;;;5068781;28;20032;-70
2023/09/21 05:15:15;;;;;;;1.40;0.90;;;18.10;99.90;;;;;;5067180;28;20123;-70
2023/09/21 05:17:41;;;;;;;2.38;1.15;;;18.10;99.90;;;;;;5065485;28;20040;-70
2023/09/21 05:20:10;;;;;;;3.20;1.48;;;18.10;99.90;;;;;;5084780;28;20539;-70
2023/09/21 05:22:39;;;;;;;6.20;1.20;;;18.20;99.90;;;;;;5068728;28;20039;-70
2023/09/21 05:25:05;;;;;;;3.78;1.40;;;18.20;99.90;;;;;;5085296;28;20044;-68
2023/09/21 05:27:31;;;;;;;2.45;1.20;;;18.20;99.90;;;;;;5068232;28;20048;-69
2023/09/21 05:29:59;;;;;;;2.03;0.93;;;18.20;99.90;;;;;;5076235;28;20076;-68
2023/09/21 05:32:26;;;;;;;1.98;1.27;;;18.20;99.90;;;;;;5085294;28;20044;-68
2023/09/21 05:34:52;;;;;;;6.45;1.77;;;18.20;99.90;;;;;;5082016;28;20406;-68
2023/09/21 05:37:19;;;;;;;2.15;1.45;;;18.20;99.90;;;;;;5067770;28;20032;-68
2023/09/21 05:39:46;;;;;;;4.40;1.75;;;18.20;99.90;;;;;;5094878;28;20040;-68
2023/09/21 05:42:12;;;;;;;1.83;1.20;;;18.20;99.90;;;;;;5065472;28;20121;-68
2023/09/21 05:44:39;;;;;;;5.43;1.30;;;18.20;99.90;;;;;;5081132;28;20043;-68
2023/09/21 05:47:04;;;;;;;3.35;1.10;;;18.20;99.90;;;;;;5062496;28;20033;-68
2023/09/21 05:49:32;;;;;;;3.55;1.15;;;18.20;99.90;;;;;;5080841;28;20149;-68
2023/09/21 05:51:59;;;;;;;2.63;1.08;;;18.20;99.90;;;;;;5064516;28;20095;-68
2023/09/21 05:54:26;;;;;;;6.18;1.40;;;18.20;99.90;;;;;;5092099;28;20130;-67
2023/09/21 05:56:52;;;;;;;6.43;1.58;;;18.20;99.90;;;;;;5066541;28;20119;-68
2023/09/21 05:59:18;;;;;;;3.35;1.60;;;18.20;99.90;;;;;;5065283;28;20039;-68
2023/09/21 06:01:44;;;;;;;5.18;1.48;;;18.30;99.90;;;;;;5065876;28;20040;-68
2023/09/21 06:04:12;;;;;;;5.13;1.40;;;18.20;99.90;;;;;;5082771;28;20032;-68
2023/09/21 06:06:41;;;;;;;2.88;1.60;;;18.30;99.90;;;;;;5069045;28;20054;-68
2023/09/21 06:09:08;;;;;;;1.50;0.88;;;18.30;99.90;;;;;;5096090;28;20078;-68
2023/09/21 06:11:33;;;;;;;5.65;1.33;;;18.30;99.90;;;;;;5096326;27;20044;-68
2023/09/21 06:13:59;;;;;;;2.05;1.13;;;18.50;99.90;;;;;;5080715;28;20111;-68
2023/09/21 06:16:25;;;;;;;4.05;1.25;;;18.60;99.90;;;;;;5082975;28;20040;-68
2023/09/21 06:18:50;;;;;;;3.42;1.10;;;18.60;99.90;;;;;;5071001;28;20065;-68
2023/09/21 06:21:19;;;;;;;1.75;1.20;;;18.50;99.90;;;;;;5086331;28;20089;-68
2023/09/21 06:23:44;;;;;;;3.42;1.08;;;18.50;99.90;;;;;;5097265;27;20040;-68
2023/09/21 06:26:14;;;;;;;4.78;1.08;;;18.50;99.90;;;;;;5085385;28;20089;-68
2023/09/21 06:28:44;;;;;;;1.65;1.08;;;18.50;99.90;;;;;;5086309;28;20028;-67
2023/09/21 06:31:13;;;;;;;3.63;1.58;;;18.50;99.90;;;;;;5098783;27;20482;-68
2023/09/21 06:33:40;;;;;;;2.42;1.10;;;18.50;99.90;;;;;;5067598;28;20043;-68
2023/09/21 06:36:08;;;;;;;3.10;1.55;;;18.50;99.90;;;;;;5087115;28;20079;-68
2023/09/21 06:38:33;;;;;;;6.72;1.60;;;18.50;99.90;;;;;;5087833;28;20045;-68
2023/09/21 06:41:00;;;;;;;2.97;1.48;;;18.50;99.90;;;;;;5068114;28;20058;-68
2023/09/21 06:43:29;;;;;;;2.60;1.20;;;18.40;99.90;;;;;;5066359;28;20040;-68
2023/09/21 06:45:55;;;;;;;7.82;1.25;;;18.40;99.90;;;;;;5085961;28;20094;-68
2023/09/21 06:48:20;;;;;;;2.95;1.55;;;18.40;99.90;;;;;;5100308;28;20048;-68
2023/09/21 06:50:47;;;;;;;2.67;1.38;;;18.30;99.90;;;;;;5083172;28;20132;-68
2023/09/21 06:53:13;;;;;;;3.00;1.42;;;18.30;99.90;;;;;;5084249;28;20528;-68
2023/09/21 06:55:38;;;;;;;2.58;1.40;;;18.30;99.90;;;;;;5084634;28;20031;-68
2023/09/21 06:58:07;;;;;;;5.18;1.17;;;18.30;99.90;;;;;;5083916;28;20238;-68
2023/09/21 07:00:36;;;;;;;3.22;1.30;;;18.20;99.90;;;;;;5066063;28;20040;-68
2023/09/21 07:03:02;;;;;;;3.72;1.30;;;18.10;99.90;;;;;;5084865;28;20050;-68
2023/09/21 07:05:28;;;;;;;3.25;1.30;;;18.10;99.90;;;;;;5083109;28;20044;-68
2023/09/21 07:07:54;;;;;;;4.72;1.20;;;18.10;99.90;;;;;;5084274;28;20055;-68
2023/09/21 07:10:19;;;;;;;1.98;1.33;;;18.00;99.90;;;;;;5082673;28;20442;-68
2023/09/21 07:12:45;;;;;;;1.90;1.40;;;17.90;99.90;;;;;;5083855;28;20040;-68
2023/09/21 07:15:11;;;;;;;3.58;1.52;;;17.90;99.90;;;;;;5068327;28;20044;-68
2023/09/21 07:17:36;;;;;;;2.80;1.55;;;17.90;99.90;;;;;;5070299;28;20043;-68
2023/09/21 07:20:06;;;;;;;2.25;1.38;;;17.90;99.90;;;;;;5065297;28;20086;-68
2023/09/21 07:22:32;;;;;;;2.75;1.48;;;17.90;99.90;;;;;;5069648;28;20093;-68
2023/09/21 07:24:59;;;;;;;8.18;1.70;;;17.90;99.90;;;;;;5071435;28;20039;-68
2023/09/21 07:27:25;;;;;;;2.78;1.40;;;17.90;99.90;;;;;;5067791;28;20056;-68
2023/09/21 07:29:53;;;;;;;4.78;1.77;;;17.90;99.90;;;;;;5085586;28;20043;-68
2023/09/21 07:32:20;;;;;;;7.03;1.52;;;17.90;99.90;;;;;;5082345;28;20040;-68
2023/09/21 07:34:48;;;;;;;6.90;1.60;;;17.90;99.90;;;;;;5094082;28;20057;-68
2023/09/21 07:37:16;;;;;;;3.22;1.40;;;17.90;99.90;;;;;;5097776;28;20063;-68
2023/09/21 07:39:42;;;;;;;4.15;1.70;;;17.90;99.90;;;;;;5062205;28;20090;-68
2023/09/21 07:42:07;;;;;;;6.35;1.92;;;17.90;99.90;;;;;;5067017;28;20048;-68
2023/09/21 07:44:33;;;;;;;3.33;1.33;;;17.90;99.90;;;;;;5085363;28;20077;-68
2023/09/21 07:46:59;;;;;;;3.03;1.48;;;17.90;99.90;;;;;;5065139;28;20055;-68
2023/09/21 07:49:25;;;;;;;4.20;1.88;;;17.90;99.90;;;;;;5082658;28;20498;-68
2023/09/21 07:51:55;;;;;;;3.42;1.80;;;17.80;99.90;;;;;;5082558;28;20040;-68
2023/09/21 07:54:22;;;;;;;2.53;1.63;;;17.80;99.90;;;;;;5084083;28;20043;-68
2023/09/21 07:56:48;;;;;;;1.95;1.50;;;17.80;99.90;;;;;;5096704;28;20075;-68
2023/09/21 07:59:14;;;;;;;2.72;1.58;;;17.80;99.90;;;;;;5096640;28;20052;-68
2023/09/21 08:01:40;;;;;;;2.38;1.42;;;17.80;99.90;;;;;;5081353;28;20040;-68
2023/09/21 08:04:07;;;;;;;3.78;2.00;;;17.80;99.90;;;;;;5065188;28;20038;-68
2023/09/21 08:06:33;;;;;;;2.10;1.35;;;17.70;99.90;;;;;;5062665;28;20478;-68
2023/09/21 08:08:59;;;;;;;4.85;1.98;;;17.70;99.90;;;;;;5062088;28;20040;-68
2023/09/21 08:11:25;;;;;;;3.67;1.60;;;17.80;99.90;;;;;;5070846;28;20044;-68
2023/09/21 08:13:51;;;;;;;2.35;1.63;;;17.70;99.90;;;;;;5090299;28;20036;-67
2023/09/21 08:16:17;;;;;;;2.33;1.67;;;17.70;99.90;;;;;;5090471;28;20162;-68
2023/09/21 08:18:43;;;;;;;2.55;1.67;;;17.70;99.90;;;;;;5101182;27;20639;-68
2023/09/21 08:21:09;;;;;;;4.40;2.10;;;17.70;99.90;;;;;;5069998;28;20036;-68
2023/09/21 08:23:36;;;;;;;1.50;1.30;;;17.60;99.90;;;;;;5068992;28;20040;-68
2023/09/21 08:26:03;;;;;;;4.60;2.25;;;17.70;99.90;;;;;;5099033;28;20044;-68
2023/09/21 08:28:29;;;;;;;4.63;1.77;;;17.70;99.90;;;;;;5090146;28;20426;-68
2023/09/21 08:30:56;;;;;;;5.22;2.00;;;17.70;99.90;;;;;;5055529;28;20101;-68
2023/09/21 08:33:22;;;;;;;3.03;1.30;;;17.70;99.90;;;;;;5064449;28;20041;-68
2023/09/21 08:35:48;;;;;;;3.00;1.83;;;17.70;99.90;;;;;;5069984;28;20102;-68
2023/09/21 08:38:14;;;;;;;4.90;1.48;;;17.70;99.90;;;;;;5088447;28;20103;-68
2023/09/21 08:40:43;;;;;;;5.10;1.52;;;17.70;99.90;;;;;;5083519;28;20447;-68
2023/09/21 08:43:19;;;;;;;5.45;1.98;;;17.70;99.90;;;;;;5064135;28;20076;-68
2023/09/21 08:45:45;;;;;;;3.53;2.00;;;17.70;99.90;;;;;;5067667;28;20135;-68
2023/09/21 08:48:15;;;;;;;2.72;1.35;;;17.70;99.90;;;;;;5085170;28;20079;-68
2023/09/21 08:50:41;;;;;;;4.38;1.40;;;17.70;99.90;;;;;;5072844;28;20036;-68
2023/09/21 08:53:12;;;;;;;2.65;1.33;;;17.80;99.90;;;;;;5073147;28;20437;-68
2023/09/21 08:55:38;;;;;;;2.67;1.40;;;17.70;99.90;;;;;;5099574;27;20056;-68
2023/09/21 08:58:06;;;;;;;2.53;1.90;;;17.70;99.90;;;;;;5085011;28;20028;-68
2023/09/21 09:00:34;;;;;;;2.08;1.60;;;17.70;99.90;;;;;;5087655;28;20047;-68
2023/09/21 09:03:00;;;;;;;2.25;1.25;;;17.60;99.90;;;;;;5067686;28;20047;-68
2023/09/21 09:05:26;;;;;;;3.17;1.50;;;17.70;99.90;;;;;;5071074;28;20498;-68
2023/09/21 09:07:52;;;;;;;5.28;1.52;;;17.60;99.90;;;;;;5067604;28;20084;-68
2023/09/21 09:10:18;;;;;;;3.10;1.92;;;17.60;99.90;;;;;;5070182;28;20044;-68
2023/09/21 09:12:43;;;;;;;4.97;1.83;;;17.60;99.90;;;;;;5071441;28;20036;-68
2023/09/21 09:15:10;;;;;;;2.33;1.80;;;17.60;99.90;;;;;;5066587;28;20039;-68
2023/09/21 09:17:36;;;;;;;4.38;2.30;;;17.60;99.90;;;;;;5085411;28;20044;-68
2023/09/21 09:20:05;;;;;;;3.85;2.17;;;17.60;99.90;;;;;;5069439;28;20498;-68
2023/09/21 09:22:34;;;;;;;3.05;1.88;;;17.60;99.90;;;;;;5067390;28;20044;-68
2023/09/21 09:25:07;;;;;;;4.93;1.90;;;17.60;99.90;;;;;;5087440;28;20040;-68
2023/09/21 09:27:34;;;;;;;2.83;1.77;;;17.50;99.90;;;;;;5084303;28;20067;-68
2023/09/21 09:30:00;;;;;;;5.60;2.03;;;17.60;99.90;;;;;;5085403;28;20068;-68
2023/09/21 09:32:37;;;;;;;4.20;2.20;;;17.60;99.90;;;;;;5098744;28;20068;-68
2023/09/21 09:35:06;;;;;;;3.75;2.10;;;17.50;99.90;;;;;;5066017;28;20040;-68
2023/09/21 09:37:34;;;;;;;3.97;1.67;;;17.50;99.90;;;;;;5086029;28;20402;-67
2023/09/21 09:40:18;;;;;;;1.20;0.90;;;17.50;99.90;;;;;;5083447;28;20044;-68
2023/09/21 09:42:45;;;;;;;1.70;0.63;;;17.40;99.90;;;;;;5067736;28;20119;-68
2023/09/21 09:45:40;;;;;;;1.10;0.70;;;17.30;99.90;;;;;;5083310;28;20051;-68
2023/09/21 09:48:14;;;;;;;2.20;0.50;;;17.30;99.90;;;;;;5088518;28;20678;-68
2023/09/21 09:50:44;;;;;;;1.23;0.25;;;17.20;99.90;;;;;;5082174;28;20383;-68
2023/09/21 09:53:17;;;;;;;0.40;0.25;;;17.10;99.90;;;;;;5100966;28;20045;-68
2023/09/21 09:55:44;;;;;;;0.57;0.20;;;17.10;99.90;;;;;;5088973;28;20027;-68
2023/09/21 09:58:10;;;;;;;0.70;0.30;;;17.00;99.90;;;;;;5069187;28;20397;-68
2023/09/21 10:00:37;;;;;;;0.95;0.50;;;17.00;99.90;;;;;;5084652;28;20032;-68
2023/09/21 10:03:07;;;;;;;1.50;0.73;;;17.00;99.90;;;;;;5100488;27;20499;-68
2023/09/21 10:05:35;;;;;;;0.43;0.20;;;17.00;99.90;;;;;;5064345;28;20059;-68
2023/09/21 10:08:03;;;;;;;3.35;0.70;;;16.90;99.90;;;;;;5080331;28;20044;-68
2023/09/21 10:10:52;;;;;;;1.92;0.40;;;16.90;99.90;;;;;;5081785;28;20040;-68
2023/09/21 10:13:18;;;;;;;0.47;0.28;;;17.00;99.90;;;;;;5066170;28;20040;-68
2023/09/21 10:15:54;;;;;;;1.27;0.52;;;17.00;99.90;;;;;;5061528;28;20518;-68
2023/09/21 10:18:29;;;;;;;;;;;16.90;99.90;;;;;;5067392;28;20032;-68
2023/09/21 10:20:59;;;;;;;5.43;0.50;;;16.90;99.90;;;;;;5066259;28;19931;-68
2023/09/21 10:23:27;;;;;;;1.30;0.38;;;16.80;99.90;;;;;;5052603;28;20069;-68
2023/09/21 10:25:55;;;;;;;0.68;0.30;;;16.80;99.90;;;;;;5080941;28;20044;-68
2023/09/21 10:28:27;;;;;;;1.42;0.20;;;16.80;99.90;;;;;;5083067;28;20047;-68
2023/09/21 10:31:06;;;;;;;5.00;0.52;;;16.80;99.90;;;;;;5081625;28;20040;-68
2023/09/21 10:33:35;;;;;;;0.63;0.30;;;16.70;99.90;;;;;;5061999;28;20051;-68
2023/09/21 10:36:01;;;;;;;1.75;0.38;;;16.70;99.90;;;;;;5081997;28;20025;-69
2023/09/21 10:38:27;;;;;;;2.90;0.75;;;16.70;99.90;;;;;;5061281;28;20501;-68
2023/09/21 10:40:53;;;;;;;0.85;0.60;;;16.80;99.90;;;;;;5062203;28;20048;-68
2023/09/21 10:43:37;;;;;;;6.53;0.50;;;16.70;99.90;;;;;;5064363;28;20494;-68
2023/09/21 10:46:21;;;;;;;1.50;0.50;;;16.70;99.90;;;;;;5091927;28;20402;-68
2023/09/21 10:49:05;;;;;;;2.20;0.57;;;16.70;99.90;;;;;;5093177;28;20051;-68
2023/09/21 10:51:32;;;;;;;59.83;4.80;;;16.70;99.90;;;;;;5062807;28;20044;-68
2023/09/21 10:53:59;;;;;;;0.80;0.30;;;16.80;99.90;;;;;;5063402;28;20044;-68
2023/09/21 10:56:27;;;;;;;0.63;0.25;;;16.90;99.90;;;;;;5067373;28;20039;-68
2023/09/21 10:58:53;;;;;;;0.57;0.20;;;16.80;99.90;;;;;;5082326;28;20047;-68
2023/09/21 11:01:19;;;;;;;1.33;0.22;;;16.80;99.90;;;;;;5084581;28;20036;-68
2023/09/21 11:03:48;;;;;;;0.32;0.10;;;16.80;99.90;;;;;;5097527;27;20048;-68
2023/09/21 11:06:17;;;;;;;0.38;0.20;;;16.80;99.90;;;;;;5097587;28;20032;-68
2023/09/21 11:08:49;;;;;;;0.10;0.10;;;16.70;99.90;;;;;;5084787;28;20078;-68
2023/09/21 11:11:16;;;;;;;4.38;0.50;;;16.60;99.90;;;;;;5086115;28;20438;-68
2023/09/21 11:13:43;;;;;;;1.17;0.38;;;16.60;99.90;;;;;;5066917;28;20162;-68
2023/09/21 11:16:14;;;;;;;6.68;0.55;;;16.60;99.90;;;;;;5080891;28;20040;-68
2023/09/21 11:18:40;;;;;;;0.45;0.25;;;16.60;99.90;;;;;;5079937;28;20041;-68
2023/09/21 11:21:08;;;;;;;0.90;0.30;;;16.50;99.90;;;;;;5062459;28;20497;-68
2023/09/21 11:23:35;;;;;;;1.13;0.40;;;16.50;99.90;;;;;;5079279;28;20066;-68
2023/09/21 11:26:01;;;;;;;0.50;0.20;;;16.50;99.90;;;;;;5099962;28;20086;-68
2023/09/21 11:28:27;;;;;;;0.75;0.20;;;16.50;99.90;;;;;;5063621;28;20406;-68
2023/09/21 11:30:56;;;;;;;0.88;0.20;;;16.50;99.90;;;;;;5063569;28;20051;-68
2023/09/21 11:33:22;;;;;;;0.77;0.20;;;16.40;99.90;;;;;;5062022;28;20555;-68
2023/09/21 11:35:48;;;;;;;1.80;0.40;;;16.40;99.90;;;;;;5061968;28;20062;-68
2023/09/21 11:38:16;;;;;;;0.52;0.20;;;16.50;99.90;;;;;;5082160;28;20111;-68
2023/09/21 11:40:42;;;;;;;5.70;0.40;;;16.50;99.90;;;;;;5064107;28;20040;-68
2023/09/21 11:43:13;;;;;;;1.20;0.40;;;16.50;99.90;;;;;;5062363;28;20048;-68
2023/09/21 11:45:39;;;;;;;0.40;0.20;;;16.50;99.90;;;;;;5053048;28;20036;-68
2023/09/21 11:48:06;;;;;;;0.75;0.40;;;16.60;99.90;;;;;;5086944;28;20482;-68
2023/09/21 11:50:34;;;;;;;0.50;0.30;;;16.50;99.90;;;;;;5098702;27;20050;-68
2023/09/21 11:53:04;;;;;;;0.68;0.20;;;16.50;99.90;;;;;;5073151;28;20050;-68
2023/09/21 11:55:30;;;;;;;1.25;0.50;;;16.50;99.90;;;;;;5064378;28;20647;-68
2023/09/21 11:58:15;;;;;;;0.63;0.30;;;16.50;99.90;;;;;;5100535;27;20048;-68
2023/09/21 12:00:49;;;;;;;0.40;0.30;;;16.50;99.90;;;;;;5086719;28;20150;-68
2023/09/21 12:03:17;;;;;;;0.40;0.28;;;16.50;99.90;;;;;;5071920;28;20046;-68
2023/09/21 12:05:44;;;;;;;0.82;0.20;;;16.40;99.90;;;;;;5098351;28;20089;-68
2023/09/21 12:08:12;;;;;;;0.70;0.30;;;16.40;99.90;;;;;;5073809;28;20119;-68
2023/09/21 12:10:37;;;;;;;1.33;0.20;;;16.40;99.90;;;;;;5100606;27;20047;-68
2023/09/21 12:13:03;;;;;;;1.05;0.30;;;16.30;99.90;;;;;;5072747;28;20064;-68
2023/09/21 12:15:29;;;;;;;0.50;0.20;;;16.20;99.90;;;;;;5071603;28;20044;-68
2023/09/21 12:17:55;;;;;;;0.43;0.20;;;16.20;99.90;;;;;;5070281;28;20164;-68
2023/09/21 12:20:21;;;;;;;1.95;0.30;;;16.20;99.90;;;;;;5084842;28;20064;-68
2023/09/21 12:22:47;;;;;;;0.47;0.20;;;16.20;99.90;;;;;;5068733;28;20067;-68
2023/09/21 12:25:14;;;;;;;0.52;0.30;;;16.20;99.90;;;;;;5098330;27;20068;-68
2023/09/21 12:27:41;;;;;;;0.73;0.40;;;16.30;99.90;;;;;;5101202;28;20051;-68
2023/09/21 12:30:12;;;;;;;0.30;0.30;;;16.30;99.90;;;;;;5084259;28;20031;-68
2023/09/21 12:32:41;;;;;;;1.65;0.30;;;16.30;99.90;;;;;;5068439;28;20040;-68
2023/09/21 12:35:10;;;;;;;0.35;0.20;;;16.30;99.90;;;;;;5103514;27;20484;-68
2023/09/21 12:37:37;;;;;;;0.73;0.40;;;16.40;99.90;;;;;;5090253;28;20043;-68
2023/09/21 12:40:11;;;;;;;0.65;0.38;;;16.40;99.90;;;;;;5086705;28;20403;-68
2023/09/21 12:42:42;;;;;;;0.85;0.30;;;16.40;99.90;;;;;;5097664;28;20048;-68
2023/09/21 12:45:14;;;;;;;1.33;0.20;;;16.40;99.90;;;;;;5097731;28;20058;-68
2023/09/21 12:47:44;;;;;;;0.30;0.20;;;16.50;99.90;;;;;;5085841;28;20036;-68
2023/09/21 12:50:11;;;;;;;0.32;0.20;;;16.50;99.90;;;;;;5099865;28;20040;-68
2023/09/21 12:52:39;;;;;;;0.55;0.40;;;16.60;99.90;;;;;;5085140;28;20036;-68